createdAt,value
2022-08-09T00:01:26.564Z,41.42
2022-08-09T00:04:24.978Z,41.97
2022-08-09T00:06:56.206Z,41.65
2022-08-09T00:09:24.429Z,41.98
2022-08-09T00:11:58.512Z,41.93
2022-08-09T00:14:37.765Z,42.06
2022-08-09T00:17:05.733Z,42.00
2022-08-09T00:19:32.288Z,42.21
2022-08-09T00:22:00.899Z,42.80
2022-08-09T00:24:31.945Z,43.03
2022-08-09T00:26:59.743Z,42.92
2022-08-09T00:29:39.463Z,43.11
2022-08-09T00:32:14.240Z,43.30
2022-08-09T00:34:52.944Z,43.20
2022-08-09T00:37:19.592Z,42.94
2022-08-09T00:40:12.712Z,43.23
2022-08-09T00:44:15.691Z,43.04
2022-08-09T00:45:20.897Z,43.73
2022-08-09T00:47:47.599Z,43.60
2022-08-09T00:50:15.152Z,43.34
2022-08-09T00:52:42.083Z,43.92
2022-08-09T00:55:10.334Z,44.06
2022-08-09T00:57:59.235Z,44.10
2022-08-09T01:00:26.746Z,44.08
2022-08-09T01:03:02.472Z,43.98
2022-08-09T01:05:51.018Z,43.66
2022-08-09T01:08:26.624Z,43.89
2022-08-09T01:11:08.591Z,44.29
2022-08-09T01:13:58.517Z,44.47
2022-08-09T01:16:30.369Z,44.29
2022-08-09T01:19:02.047Z,44.02
2022-08-09T01:21:50.798Z,44.84
2022-08-09T01:24:33.020Z,44.93
2022-08-09T01:27:07.830Z,44.86
2022-08-09T01:29:40.976Z,44.63
2022-08-09T01:32:32.552Z,44.64
2022-08-09T01:35:18.236Z,44.76
2022-08-09T01:38:09.846Z,45.08
2022-08-09T01:40:42.084Z,44.70
2022-08-09T01:43:10.596Z,45.08
2022-08-09T01:45:44.683Z,44.81
2022-08-09T01:48:16.234Z,44.58
2022-08-09T01:50:48.113Z,44.93
2022-08-09T01:53:19.842Z,44.81
2022-08-09T01:55:49.871Z,45.18
2022-08-09T01:58:17.473Z,46.02
2022-08-09T02:00:46.132Z,45.57
2022-08-09T02:03:14.807Z,46.60
2022-08-09T02:06:04.199Z,46.35
2022-08-09T02:08:41.211Z,47.18
2022-08-09T02:11:18.818Z,47.56
2022-08-09T02:14:06.389Z,47.40
2022-08-09T02:16:53.218Z,48.30
2022-08-09T02:19:24.736Z,47.72
2022-08-09T02:22:27.312Z,47.87
2022-08-09T02:25:04.220Z,49.49
2022-08-09T02:27:57.967Z,49.23
2022-08-09T02:30:22.091Z,50.36
2022-08-09T02:32:53.316Z,49.85
2022-08-09T02:36:01.160Z,50.58
2022-08-09T02:38:22.217Z,50.07
2022-08-09T02:41:10.674Z,49.27
2022-08-09T02:43:42.550Z,49.40
2022-08-09T02:46:24.573Z,50.69
2022-08-09T02:48:51.618Z,50.51
2022-08-09T02:51:20.519Z,51.27
2022-08-09T02:53:59.706Z,49.92
2022-08-09T02:56:28.849Z,49.56
2022-08-09T02:58:56.076Z,49.47
2022-08-09T03:01:29.708Z,49.96
2022-08-09T03:04:16.492Z,49.70
2022-08-09T03:06:46.035Z,49.92
2022-08-09T03:09:17.282Z,50.11
2022-08-09T03:12:05.242Z,49.76
2022-08-09T03:14:32.034Z,49.46
2022-08-09T03:17:02.316Z,49.37
2022-08-09T03:19:57.859Z,49.45
2022-08-09T03:22:25.309Z,50.31
2022-08-09T03:25:26.053Z,50.89
2022-08-09T03:27:56.567Z,50.57
2022-08-09T03:30:29.931Z,50.22
2022-08-09T03:33:05.592Z,50.00
2022-08-09T03:36:11.735Z,49.64
2022-08-09T03:38:28.955Z,49.36
2022-08-09T03:40:57.853Z,50.96
2022-08-09T03:43:24.442Z,50.11
2022-08-09T03:46:04.115Z,50.17
2022-08-09T03:48:50.918Z,50.04
2022-08-09T03:51:55.339Z,50.02
2022-08-09T03:54:06.579Z,49.97
2022-08-09T03:56:38.919Z,49.74
2022-08-09T03:59:13.562Z,49.80
2022-08-09T04:01:41.962Z,49.73
2022-08-09T04:04:10.126Z,49.84
2022-08-09T04:06:48.955Z,49.57
2022-08-09T04:09:42.039Z,49.25
2022-08-09T04:12:11.790Z,49.28
2022-08-09T04:15:00.998Z,49.20
2022-08-09T04:17:26.301Z,49.63
2022-08-09T04:19:56.587Z,49.55
2022-08-09T04:22:23.591Z,49.83
2022-08-09T04:24:50.237Z,49.46
2022-08-09T04:27:22.159Z,49.61
2022-08-09T04:29:49.582Z,49.97
2022-08-09T04:32:16.404Z,50.32
2022-08-09T04:34:54.349Z,50.61
2022-08-09T04:37:23.993Z,50.34
2022-08-09T04:40:11.681Z,50.09
2022-08-09T04:42:48.378Z,49.93
2022-08-09T04:45:16.546Z,49.80
2022-08-09T04:48:00.914Z,49.77
2022-08-09T04:50:31.741Z,49.67
2022-08-09T04:53:02.072Z,49.22
2022-08-09T04:55:38.333Z,49.68
2022-08-09T04:58:09.716Z,50.43
2022-08-09T05:00:36.659Z,50.40
2022-08-09T05:03:30.047Z,50.78
2022-08-09T05:06:06.853Z,50.23
2022-08-09T05:08:35.069Z,49.95
2022-08-09T05:11:02.718Z,49.95
2022-08-09T05:13:29.418Z,49.88
2022-08-09T05:16:00.216Z,49.69
2022-08-09T05:18:55.195Z,49.98
2022-08-09T05:21:24.602Z,49.62
2022-08-09T05:24:00.437Z,49.48
2022-08-09T05:26:36.656Z,49.30
2022-08-09T05:29:17.776Z,49.36
2022-08-09T05:31:57.206Z,49.05
2022-08-09T05:34:31.156Z,49.49
2022-08-09T05:37:06.355Z,49.91
2022-08-09T05:39:42.302Z,49.72
2022-08-09T05:42:10.035Z,49.59
2022-08-09T05:44:44.774Z,50.17
2022-08-09T05:47:14.835Z,49.56
2022-08-09T05:50:26.745Z,49.71
2022-08-09T05:52:30.740Z,50.02
2022-08-09T05:55:03.304Z,49.84
2022-08-09T05:57:55.631Z,50.17
2022-08-09T06:00:29.836Z,48.67
2022-08-09T06:03:01.365Z,48.29
2022-08-09T06:05:54.512Z,48.80
2022-08-09T06:08:24.447Z,48.49
2022-08-09T06:10:55.600Z,48.48
2022-08-09T06:13:22.749Z,48.36
2022-08-09T06:15:51.523Z,48.31
2022-08-09T06:18:25.326Z,48.03
2022-08-09T06:20:54.622Z,48.18
2022-08-09T06:23:55.671Z,47.84
2022-08-09T06:26:20.829Z,47.59
2022-08-09T06:28:59.297Z,47.78
2022-08-09T06:31:31.087Z,47.52
2022-08-09T06:34:06.732Z,47.56
2022-08-09T06:36:33.987Z,47.79
2022-08-09T06:39:02.712Z,47.63
2022-08-09T06:42:00.512Z,47.60
2022-08-09T06:44:22.572Z,47.38
2022-08-09T06:46:54.971Z,47.20
2022-08-09T06:49:44.769Z,47.08
2022-08-09T06:52:10.309Z,47.20
2022-08-09T06:54:38.612Z,48.69
2022-08-09T06:57:05.625Z,47.41
2022-08-09T07:00:51.497Z,47.61
2022-08-09T07:02:21.579Z,47.58
2022-08-09T07:04:48.164Z,46.81
2022-08-09T07:08:00.909Z,46.51
2022-08-09T07:10:14.038Z,46.77
2022-08-09T07:12:57.538Z,46.26
2022-08-09T07:15:53.723Z,46.61
2022-08-09T07:18:11.995Z,45.54
2022-08-09T07:20:40.958Z,44.92
2022-08-09T07:23:18.833Z,45.86
2022-08-09T07:25:52.472Z,46.33
2022-08-09T07:28:29.744Z,46.58
2022-08-09T07:30:56.678Z,45.72
2022-08-09T07:33:23.394Z,46.92
2022-08-09T07:35:53.543Z,47.10
2022-08-09T07:38:21.269Z,47.73
2022-08-09T07:41:08.254Z,46.97
2022-08-09T07:43:49.614Z,45.15
2022-08-09T07:47:18.060Z,44.63
2022-08-09T07:50:04.813Z,44.75
2022-08-09T07:52:31.453Z,43.39
2022-08-09T07:54:58.298Z,44.12
2022-08-09T07:57:33.868Z,43.41
2022-08-09T08:00:04.202Z,44.10
2022-08-09T08:02:31.042Z,41.99
2022-08-09T08:04:57.692Z,41.59
2022-08-09T08:08:06.603Z,42.85
2022-08-09T08:10:12.465Z,41.80
2022-08-09T08:12:43.330Z,42.25
2022-08-09T08:15:11.813Z,42.37
2022-08-09T08:17:53.675Z,41.94
2022-08-09T08:20:29.506Z,40.75
2022-08-09T08:23:21.512Z,39.71
2022-08-09T08:26:06.258Z,39.02
2022-08-09T08:28:35.066Z,38.94
2022-08-09T08:31:10.633Z,39.15
2022-08-09T08:33:53.305Z,38.23
2022-08-09T08:36:29.128Z,38.36
2022-08-09T08:38:57.206Z,37.58
2022-08-09T08:41:24.588Z,37.10
2022-08-09T08:44:08.737Z,36.27
2022-08-09T08:46:59.342Z,34.97
2022-08-09T08:49:38.465Z,34.74
2022-08-09T08:52:58.103Z,33.30
2022-08-09T08:55:13.583Z,32.83
2022-08-09T08:57:42.536Z,32.19
2022-08-09T09:00:16.878Z,31.66
2022-08-09T09:02:52.593Z,32.15
2022-08-09T09:05:33.003Z,31.46
2022-08-09T09:08:30.065Z,29.42
2022-08-09T09:11:00.684Z,28.54
2022-08-09T09:13:34.644Z,27.65
2022-08-09T09:16:14.151Z,26.62
2022-08-09T09:18:45.813Z,25.93
2022-08-09T09:21:15.566Z,26.63
2022-08-09T09:23:48.967Z,26.82
2022-08-09T09:26:23.993Z,25.73
2022-08-09T09:29:03.336Z,26.30
2022-08-09T09:32:06.039Z,21.34
2022-08-09T09:34:23.437Z,17.13
2022-08-09T09:36:53.123Z,13.54
2022-08-09T09:39:50.169Z,12.65
2022-08-09T09:42:25.835Z,11.45
2022-08-09T09:44:57.972Z,8.99
2022-08-09T09:47:25.616Z,9.01
2022-08-09T09:50:13.797Z,7.77
2022-08-09T09:52:56.108Z,7.17
2022-08-09T09:55:31.904Z,6.16
2022-08-09T09:58:16.211Z,6.07
2022-08-09T10:00:52.959Z,6.82
2022-08-09T10:03:44.611Z,6.55
2022-08-09T10:06:22.975Z,6.61
2022-08-09T10:08:54.785Z,6.55
2022-08-09T10:11:59.490Z,6.19
2022-08-09T10:14:27.489Z,6.66
2022-08-09T10:17:11.257Z,6.49
2022-08-09T10:19:45.857Z,8.24
2022-08-09T10:22:12.720Z,7.94
2022-08-09T10:24:40.318Z,7.16
2022-08-09T10:27:10.214Z,7.81
2022-08-09T10:30:16.572Z,6.71
2022-08-09T10:32:42.443Z,5.69
2022-08-09T10:35:10.156Z,5.13
2022-08-09T10:37:38.305Z,5.84
2022-08-09T10:40:07.021Z,7.27
2022-08-09T10:42:38.886Z,6.22
2022-08-09T10:45:10.696Z,5.50
2022-08-09T10:48:16.450Z,5.39
2022-08-09T10:51:09.415Z,5.08
2022-08-09T10:53:46.779Z,5.38
2022-08-09T10:56:25.612Z,5.66
2022-08-09T10:58:54.121Z,5.34
2022-08-09T11:03:11.612Z,4.81
2022-08-09T11:04:32.085Z,4.76
2022-08-09T11:07:00.044Z,3.85
2022-08-09T11:09:41.182Z,4.46
2022-08-09T11:12:26.584Z,4.11
2022-08-09T11:15:02.902Z,4.25
2022-08-09T11:17:32.633Z,5.08
2022-08-09T11:20:17.945Z,4.66
2022-08-09T11:22:47.353Z,4.57
2022-08-09T11:25:47.166Z,4.48
2022-08-09T11:28:56.723Z,6.71
2022-08-09T11:31:50.219Z,6.90
2022-08-09T11:34:43.053Z,7.20
2022-08-09T11:37:18.213Z,6.90
2022-08-09T11:40:04.978Z,6.59
2022-08-09T11:42:43.368Z,5.38
2022-08-09T11:45:42.097Z,4.84
2022-08-09T11:48:19.457Z,5.54
2022-08-09T11:52:49.067Z,5.30
2022-08-09T11:53:59.154Z,5.32
2022-08-09T11:56:34.365Z,5.04
2022-08-09T11:59:11.614Z,4.87
2022-08-09T12:02:17.229Z,4.34
2022-08-09T12:04:32.435Z,6.70
2022-08-09T12:07:04.604Z,6.73
2022-08-09T12:09:35.466Z,6.44
2022-08-09T12:12:12.861Z,5.65
2022-08-09T12:15:04.203Z,5.84
2022-08-09T12:17:34.440Z,5.76
2022-08-09T12:20:23.018Z,7.13
2022-08-09T12:23:07.726Z,10.27
2022-08-09T12:25:38.452Z,11.53
2022-08-09T12:29:11.661Z,14.74
2022-08-09T12:31:58.703Z,16.24
2022-08-09T12:34:14.913Z,18.01
2022-08-09T12:36:59.109Z,19.47
2022-08-09T12:39:42.086Z,20.42
2022-08-09T12:42:16.342Z,20.93
2022-08-09T12:44:51.905Z,21.49
2022-08-09T12:47:22.705Z,22.04
2022-08-09T12:50:08.964Z,22.47
2022-08-09T12:53:08.100Z,22.71
2022-08-09T12:56:16.203Z,22.86
2022-08-09T12:58:24.251Z,23.14
2022-08-09T13:00:54.135Z,23.27
2022-08-09T13:03:53.257Z,22.25
2022-08-09T13:06:34.539Z,22.41
2022-08-09T13:09:06.625Z,22.74
2022-08-09T13:11:39.483Z,22.73
2022-08-09T13:14:40.808Z,22.83
2022-08-09T13:16:59.165Z,23.10
2022-08-09T13:20:07.327Z,22.25
2022-08-09T13:22:37.897Z,22.89
2022-08-09T13:25:15.748Z,23.12
2022-08-09T13:27:54.822Z,23.47
2022-08-09T13:31:10.942Z,23.56
2022-08-09T13:33:24.609Z,22.39
2022-08-09T13:36:24.700Z,23.60
2022-08-09T13:39:00.903Z,23.38
2022-08-09T13:41:58.322Z,23.61
2022-08-09T13:44:17.775Z,23.80
2022-08-09T13:47:29.521Z,23.49
2022-08-09T13:49:39.537Z,23.60
2022-08-09T13:52:19.625Z,23.76
2022-08-09T13:54:58.863Z,23.47
2022-08-09T13:57:36.306Z,23.09
2022-08-09T14:00:13.089Z,23.18
2022-08-09T14:03:02.136Z,22.67
2022-08-09T14:05:58.266Z,22.91
2022-08-09T14:08:17.633Z,22.98
2022-08-09T14:10:50.384Z,22.53
2022-08-09T14:13:21.689Z,23.66
2022-08-09T14:16:10.856Z,23.47
2022-08-09T14:18:45.194Z,23.43
2022-08-09T14:21:17.549Z,22.55
2022-08-09T14:23:55.108Z,22.84
2022-08-09T14:26:32.748Z,23.97
2022-08-09T14:30:15.241Z,22.81
2022-08-09T14:32:11.404Z,22.71
2022-08-09T14:34:42.757Z,22.99
2022-08-09T14:37:09.450Z,23.09
2022-08-09T14:39:46.468Z,23.28
2022-08-09T14:42:31.002Z,22.40
2022-08-09T14:46:39.921Z,22.54
2022-08-09T14:47:58.055Z,22.68
2022-08-09T14:50:28.166Z,22.02
2022-08-09T14:52:54.815Z,22.06
2022-08-09T14:55:21.578Z,22.33
2022-08-09T14:57:49.176Z,22.44
2022-08-09T15:00:16.785Z,22.12
2022-08-09T15:02:47.489Z,21.92
2022-08-09T15:05:16.169Z,21.83
2022-08-09T15:07:45.384Z,21.47
2022-08-09T15:10:14.203Z,21.94
2022-08-09T15:12:44.978Z,22.99
2022-08-09T15:15:13.140Z,22.27
2022-08-09T15:17:42.192Z,21.75
2022-08-09T15:20:15.322Z,21.39
2022-08-09T15:24:01.587Z,21.32
2022-08-09T15:25:53.552Z,21.71
2022-08-09T15:28:26.477Z,21.75
2022-08-09T15:31:03.229Z,22.04
2022-08-09T15:34:17.333Z,23.00
2022-08-09T15:36:28.896Z,22.53
2022-08-09T15:38:57.747Z,22.81
2022-08-09T15:41:31.934Z,22.74
2022-08-09T15:44:02.802Z,22.90
2022-08-09T15:46:32.628Z,22.87
2022-08-09T15:49:22.658Z,22.57
2022-08-09T15:52:02.943Z,22.81
2022-08-09T15:54:46.148Z,24.07
2022-08-09T15:57:34.986Z,23.59
2022-08-09T16:00:14.840Z,23.39
2022-08-09T16:02:48.188Z,23.93
2022-08-09T16:05:22.515Z,24.00
2022-08-09T16:07:50.683Z,24.65
2022-08-09T16:10:55.312Z,24.33
2022-08-09T16:13:04.709Z,24.29
2022-08-09T16:16:12.231Z,24.24
2022-08-09T16:18:32.056Z,24.78
2022-08-09T16:20:59.240Z,23.96
2022-08-09T16:23:26.931Z,23.93
2022-08-09T16:25:54.781Z,25.05
2022-08-09T16:28:29.251Z,25.12
2022-08-09T16:30:58.936Z,25.13
2022-08-09T16:33:26.851Z,25.40
2022-08-09T16:35:58.235Z,25.33
2022-08-09T16:38:27.522Z,25.33
2022-08-09T16:40:56.929Z,25.13
2022-08-09T16:43:24.457Z,25.41
2022-08-09T16:45:54.026Z,25.13
2022-08-09T16:48:40.747Z,25.87
2022-08-09T16:51:13.824Z,25.69
2022-08-09T16:54:02.336Z,25.74
2022-08-09T16:56:30.484Z,25.69
2022-08-09T16:58:57.778Z,25.63
2022-08-09T17:01:24.986Z,25.83
2022-08-09T17:03:51.995Z,25.93
2022-08-09T17:06:31.958Z,25.92
2022-08-09T17:09:16.175Z,26.08
2022-08-09T17:11:51.374Z,26.43
2022-08-09T17:14:27.090Z,26.85
2022-08-09T17:17:01.026Z,26.31
2022-08-09T17:20:06.075Z,26.30
2022-08-09T17:22:25.006Z,26.77
2022-08-09T17:25:03.252Z,26.75
2022-08-09T17:27:38.206Z,26.44
2022-08-09T17:30:07.084Z,27.03
2022-08-09T17:32:39.885Z,26.87
2022-08-09T17:35:12.851Z,26.93
2022-08-09T17:38:12.992Z,27.06
2022-08-09T17:40:32.132Z,27.00
2022-08-09T17:43:10.853Z,26.93
2022-08-09T17:46:03.170Z,27.49
2022-08-09T17:48:31.863Z,27.54
2022-08-09T17:50:59.296Z,27.42
2022-08-09T17:53:43.513Z,27.83
2022-08-09T17:56:18.553Z,27.33
2022-08-09T17:58:45.239Z,27.49
2022-08-09T18:01:22.560Z,28.06
2022-08-09T18:03:54.284Z,28.09
2022-08-09T18:06:30.968Z,28.04
2022-08-09T18:09:01.731Z,28.12
2022-08-09T18:11:29.908Z,27.94
2022-08-09T18:14:00.454Z,27.91
2022-08-09T18:16:32.842Z,28.29
2022-08-09T18:19:03.820Z,28.37
2022-08-09T18:21:41.579Z,28.21
2022-08-09T18:24:14.521Z,28.37
2022-08-09T18:26:45.897Z,28.46
2022-08-09T18:30:35.613Z,28.40
2022-08-09T18:32:00.851Z,28.25
2022-08-09T18:34:31.452Z,28.37
2022-08-09T18:36:58.392Z,27.91
2022-08-09T18:39:25.802Z,28.39
2022-08-09T18:42:01.776Z,28.70
2022-08-09T18:44:28.350Z,28.09
2022-08-09T18:47:06.467Z,28.39
2022-08-09T18:49:41.445Z,28.47
2022-08-09T18:52:14.037Z,28.47
2022-08-09T18:54:49.625Z,28.37
2022-08-09T18:57:22.011Z,28.31
2022-08-09T18:59:57.798Z,28.11
2022-08-09T19:02:32.418Z,28.54
2022-08-09T19:05:20.698Z,28.78
2022-08-09T19:08:04.137Z,29.25
2022-08-09T19:10:39.276Z,29.37
2022-08-09T19:13:22.012Z,28.92
2022-08-09T19:15:51.298Z,28.51
2022-08-09T19:18:34.086Z,29.30
2022-08-09T19:21:09.435Z,29.40
2022-08-09T19:24:39.489Z,29.47
2022-08-09T19:26:32.316Z,29.20
2022-08-09T19:29:09.409Z,29.20
2022-08-09T19:31:44.926Z,29.37
2022-08-09T19:34:22.062Z,29.17
2022-08-09T19:36:57.421Z,29.09
2022-08-09T19:39:43.110Z,29.15
2022-08-09T19:42:14.451Z,29.26
2022-08-09T19:44:42.153Z,29.12
2022-08-09T19:47:09.089Z,29.41
2022-08-09T19:50:08.671Z,29.62
2022-08-09T19:52:26.236Z,29.78
2022-08-09T19:54:52.865Z,29.64
2022-08-09T19:57:25.561Z,29.79
2022-08-09T20:00:06.295Z,29.87
2022-08-09T20:04:11.491Z,29.33
2022-08-09T20:05:24.053Z,29.75
2022-08-09T20:07:58.864Z,29.95
2022-08-09T20:10:36.485Z,30.18
2022-08-09T20:13:05.467Z,30.02
2022-08-09T20:16:38.149Z,30.45
2022-08-09T20:18:19.721Z,30.17
2022-08-09T20:20:47.076Z,30.05
2022-08-09T20:23:13.632Z,29.93
2022-08-09T20:25:51.696Z,30.49
2022-08-09T20:28:27.727Z,30.83
2022-08-09T20:30:54.865Z,30.51
2022-08-09T20:33:21.949Z,30.68
2022-08-09T20:35:50.731Z,31.02
2022-08-09T20:38:34.013Z,31.26
2022-08-09T20:41:05.262Z,31.14
2022-08-09T20:43:32.825Z,31.24
2022-08-09T20:46:33.497Z,31.49
2022-08-09T20:48:45.973Z,31.63
2022-08-09T20:51:19.644Z,32.08
2022-08-09T20:53:46.632Z,31.82
2022-08-09T20:56:21.085Z,31.55
2022-08-09T20:58:50.363Z,32.61
2022-08-09T21:01:35.418Z,33.97
2022-08-09T21:05:48.605Z,33.62
2022-08-09T21:06:53.968Z,33.92
2022-08-09T21:09:32.736Z,34.76
2022-08-09T21:14:41.572Z,35.15
2022-08-09T21:18:11.773Z,35.08
2022-08-09T21:20:17.645Z,34.86
2022-08-09T21:22:43.068Z,34.56
2022-08-09T21:25:37.700Z,34.49
2022-08-09T21:28:07.366Z,34.49
2022-08-09T21:30:40.578Z,34.36
2022-08-09T21:33:08.498Z,34.66
2022-08-09T21:35:39.486Z,34.78
2022-08-09T21:38:19.026Z,34.85
2022-08-09T21:40:57.794Z,35.51
2022-08-09T21:43:46.769Z,35.58
2022-08-09T21:46:11.112Z,36.13
2022-08-09T21:48:38.662Z,36.19
2022-08-09T21:51:13.969Z,36.42
2022-08-09T21:53:54.545Z,36.31
2022-08-09T21:56:43.522Z,35.81
2022-08-09T21:59:09.289Z,35.54
2022-08-09T22:01:58.543Z,35.60
2022-08-09T22:04:22.828Z,36.00
2022-08-09T22:07:09.393Z,36.23
2022-08-09T22:09:38.768Z,36.56
2022-08-09T22:12:18.793Z,36.36
2022-08-09T22:14:57.866Z,36.46
2022-08-09T22:17:24.414Z,36.62
2022-08-09T22:19:58.674Z,36.42
2022-08-09T22:22:27.321Z,36.34
2022-08-09T22:26:05.334Z,36.67
2022-08-09T22:27:40.554Z,37.38
2022-08-09T22:30:09.597Z,38.23
2022-08-09T22:32:36.196Z,38.33
2022-08-09T22:35:06.815Z,38.94
2022-08-09T22:38:07.107Z,38.99
2022-08-09T22:40:34.249Z,38.91
2022-08-09T22:43:00.934Z,39.52
2022-08-09T22:48:10.523Z,39.84
2022-08-09T22:48:34.501Z,40.37
2022-08-09T22:51:01.678Z,40.10
2022-08-09T22:53:58.727Z,39.99
2022-08-09T22:56:33.797Z,40.47
2022-08-09T22:59:06.094Z,40.93
2022-08-09T23:01:51.473Z,40.27
2022-08-09T23:04:18.113Z,40.72
2022-08-09T23:07:03.895Z,40.32
2022-08-09T23:09:38.321Z,40.62
2022-08-09T23:12:05.516Z,40.25
2022-08-09T23:14:41.634Z,40.46
2022-08-09T23:17:08.734Z,39.59
2022-08-09T23:20:00.895Z,39.76
2022-08-09T23:22:21.858Z,39.98
2022-08-09T23:24:48.805Z,39.74
2022-08-09T23:27:15.739Z,39.56
2022-08-09T23:29:42.263Z,39.35
2022-08-09T23:32:10.084Z,39.79
2022-08-09T23:34:36.784Z,39.88
2022-08-09T23:37:04.478Z,39.33
2022-08-09T23:39:31.473Z,40.00
2022-08-09T23:41:58.215Z,39.76
2022-08-09T23:44:24.827Z,40.18
2022-08-09T23:46:52.888Z,39.45
2022-08-09T23:49:24.984Z,40.01
2022-08-09T23:51:52.298Z,39.95
2022-08-09T23:54:19.866Z,39.84
2022-08-09T23:56:54.377Z,39.98
2022-08-09T23:59:24.160Z,39.69
